Time;durP1;ratioP1;P1;durP2;ratioP2;P2;SDS_P1;SDS_P2;PMS_P1;PMS_P2;Temp;Humidity;BMP_temperature;BMP_pressure;BME280_temperature;BME280_humidity;BME280_pressure;Samples;Min_cycle;Max_cycle;Signal;HPM_P1;HPM_P2
2024/01/03 00:00:56;;;;;;;1.70;1.50;;;;;;;15.40;53.05;96795.64;105608;1257;65901;-39
2024/01/03 00:03:25;;;;;;;2.00;1.40;;;;;;;15.39;52.93;96790.84;105754;1259;72548;-39
2024/01/03 00:05:52;;;;;;;2.20;1.70;;;;;;;15.40;52.95;96787.70;105911;1256;61218;-38
2024/01/03 00:08:26;;;;;;;2.10;1.70;;;;;;;15.40;53.04;96781.15;105711;1253;61296;-39
2024/01/03 00:10:56;;;;;;;1.60;1.40;;;;;;;15.41;52.99;96774.36;105588;1254;74532;-39
2024/01/03 00:13:32;;;;;;;2.10;1.60;;;;;;;15.40;53.01;96772.83;105752;1256;65712;-38
2024/01/03 00:15:58;;;;;;;1.80;1.50;;;;;;;15.41;52.90;96762.66;105581;1253;72732;-39
2024/01/03 00:18:50;;;;;;;1.60;1.50;;;;;;;15.41;52.96;96760.42;105759;1256;61512;-39
2024/01/03 00:21:23;;;;;;;2.00;1.80;;;;;;;15.41;53.02;96757.02;105702;1253;61199;-39
2024/01/03 00:23:55;;;;;;;1.80;1.60;;;;;;;15.41;53.01;96760.67;105555;1253;72699;-39
2024/01/03 00:26:25;;;;;;;1.90;1.60;;;;;;;15.42;52.89;96761.84;105647;1255;64760;-39
2024/01/03 00:28:52;;;;;;;1.60;1.50;;;;;;;15.42;53.06;96755.92;105881;1256;72711;-39
2024/01/03 00:31:41;;;;;;;1.60;1.50;;;;;;;15.42;52.95;96751.52;105806;1256;61208;-39
2024/01/03 00:34:23;;;;;;;2.00;1.60;;;;;;;15.43;52.98;96747.77;105744;1253;61247;-39
2024/01/03 00:36:52;;;;;;;2.10;1.50;;;;;;;15.43;53.03;96747.60;105888;1253;74663;-39
2024/01/03 00:39:32;;;;;;;2.00;1.70;;;;;;;15.43;52.85;96743.66;105874;1257;66234;-38
2024/01/03 00:41:59;;;;;;;1.80;1.70;;;;;;;15.43;53.06;96740.44;105899;1254;73475;-38
2024/01/03 00:44:26;;;;;;;1.60;1.50;;;;;;;15.43;52.94;96745.68;105800;1256;61228;-39
2024/01/03 00:46:54;;;;;;;1.60;1.50;;;;;;;15.43;52.96;96744.15;105595;1256;61224;-38
2024/01/03 00:49:20;;;;;;;2.20;1.70;;;;;;;15.44;53.05;96742.70;105522;1259;74553;-40
2024/01/03 00:51:48;;;;;;;1.60;1.50;;;;;;;15.45;52.98;96736.95;105620;1256;66262;-39
2024/01/03 00:54:16;;;;;;;2.00;1.80;;;;;;;15.45;52.97;96731.70;105685;1253;72413;-39
2024/01/03 00:56:43;;;;;;;1.60;1.50;;;;;;;15.44;52.92;96730.48;105805;1255;61237;-40
2024/01/03 00:59:10;;;;;;;1.60;1.50;;;;;;;15.45;52.94;96729.19;105663;1254;61226;-38
2024/01/03 01:01:37;;;;;;;2.00;1.50;;;;;;;15.45;52.99;96721.87;105678;1260;73667;-39
2024/01/03 01:04:03;;;;;;;1.60;1.40;;;;;;;15.45;52.89;96720.17;105927;1255;66060;-39
2024/01/03 01:06:30;;;;;;;1.80;1.60;;;;;;;15.45;52.96;96710.15;105861;1253;72429;-39
2024/01/03 01:08:57;;;;;;;1.90;1.60;;;;;;;15.46;52.89;96701.28;105561;1259;61251;-39
2024/01/03 01:11:24;;;;;;;2.00;1.80;;;;;;;15.46;52.87;96692.96;105808;1253;61300;-39
2024/01/03 01:13:51;;;;;;;1.60;1.50;;;;;;;15.46;52.91;96689.58;105654;1253;74636;-38
2024/01/03 01:16:17;;;;;;;1.80;1.50;;;;;;;15.47;53.03;96678.03;105763;1256;66200;-39
2024/01/03 01:18:44;;;;;;;1.90;1.70;;;;;;;15.47;52.89;96672.27;105883;1253;61206;-39
2024/01/03 01:21:11;;;;;;;1.80;1.40;;;;;;;15.47;52.89;96660.23;105940;1256;61257;-39
2024/01/03 01:23:42;;;;;;;1.60;1.40;;;;;;;15.47;52.93;96653.67;105912;1253;61388;-39
2024/01/03 01:26:09;;;;;;;1.50;1.40;;;;;;;15.47;52.83;96650.91;105790;1256;74647;-39
2024/01/03 01:28:39;;;;;;;4.70;1.70;;;;;;;15.47;52.94;96644.59;105813;1253;66303;-38
2024/01/03 01:31:05;;;;;;;2.80;1.50;;;;;;;15.47;53.00;96641.66;105873;1256;72623;-39
2024/01/03 01:33:33;;;;;;;2.10;1.40;;;;;;;15.48;52.91;96638.35;105908;1256;63826;-38
2024/01/03 01:36:00;;;;;;;2.90;1.60;;;;;;;15.48;52.97;96632.79;105737;1253;61250;-38
2024/01/03 01:38:26;;;;;;;1.50;1.40;;;;;;;15.49;52.86;96630.73;105974;1252;74637;-38
2024/01/03 01:40:53;;;;;;;3.30;1.40;;;;;;;15.48;52.95;96626.88;105892;1256;63868;-38
2024/01/03 01:43:20;;;;;;;1.90;1.70;;;;;;;15.49;53.01;96628.27;105859;1251;72779;-38
2024/01/03 01:45:47;;;;;;;1.50;1.40;;;;;;;15.49;52.98;96628.89;105661;1255;61355;-38
2024/01/03 01:48:15;;;;;;;1.60;1.40;;;;;;;15.49;52.88;96617.33;105775;1253;61259;-38
2024/01/03 01:50:42;;;;;;;2.00;1.50;;;;;;;15.49;52.90;96609.94;105918;1253;72319;-38
2024/01/03 01:53:09;;;;;;;1.80;1.60;;;;;;;15.49;53.02;96609.39;105931;1253;64792;-39
2024/01/03 01:55:36;;;;;;;1.50;1.40;;;;;;;15.49;52.84;96609.40;105528;1253;72473;-38
2024/01/03 01:58:03;;;;;;;1.90;1.50;;;;;;;15.50;52.92;96605.31;106208;1256;61359;-39
2024/01/03 02:00:30;;;;;;;1.80;1.30;;;;;;;15.50;52.92;96601.23;105750;1253;61250;-39
2024/01/03 02:02:57;;;;;;;2.00;1.60;;;;;;;15.50;52.91;96598.54;105660;1253;74440;-38
2024/01/03 02:05:23;;;;;;;1.70;1.50;;;;;;;15.51;52.87;96598.17;105675;1257;65136;-40
2024/01/03 02:07:50;;;;;;;1.50;1.40;;;;;;;15.51;52.89;96593.77;105658;1253;72675;-40
2024/01/03 02:10:17;;;;;;;2.00;1.50;;;;;;;15.51;52.90;96591.38;105644;1256;61251;-40
2024/01/03 02:12:44;;;;;;;3.60;1.30;;;;;;;15.51;52.92;96589.00;105535;1253;61257;-39
2024/01/03 02:15:11;;;;;;;1.60;1.50;;;;;;;15.51;52.83;96583.61;105634;1254;74559;-40
2024/01/03 02:17:38;;;;;;;1.50;1.40;;;;;;;15.52;52.91;96580.61;105482;1258;65876;-40
2024/01/03 02:20:05;;;;;;;1.90;1.40;;;;;;;15.51;52.84;96572.20;105567;1254;73566;-39
2024/01/03 02:22:32;;;;;;;1.90;1.60;;;;;;;15.52;52.81;96568.20;105623;1256;61712;-40
2024/01/03 02:24:59;;;;;;;1.60;1.50;;;;;;;15.52;52.91;96565.05;105632;1253;61260;-38
2024/01/03 02:27:26;;;;;;;1.90;1.60;;;;;;;15.52;52.88;96558.27;105888;1253;74464;-40
2024/01/03 02:29:53;;;;;;;2.00;1.70;;;;;;;15.52;52.74;96556.64;105878;1256;65885;-39
2024/01/03 02:32:20;;;;;;;2.10;1.40;;;;;;;15.52;52.79;96555.95;105585;1254;72603;-40
2024/01/03 02:34:46;;;;;;;1.50;1.40;;;;;;;15.52;52.77;96552.71;105642;1255;61231;-40
2024/01/03 02:37:13;;;;;;;3.60;1.60;;;;;;;15.52;52.77;96550.94;105781;1256;61218;-38
2024/01/03 02:39:40;;;;;;;1.60;1.50;;;;;;;15.52;52.88;96550.02;105900;1256;74845;-39
2024/01/03 02:42:06;;;;;;;1.70;1.60;;;;;;;15.53;52.83;96551.56;105920;1252;66004;-39
2024/01/03 02:44:33;;;;;;;1.80;1.60;;;;;;;15.53;52.85;96548.87;105916;1253;72697;-39
2024/01/03 02:46:59;;;;;;;1.50;1.40;;;;;;;15.53;52.92;96547.88;105997;1256;61200;-39
2024/01/03 02:49:26;;;;;;;2.00;1.60;;;;;;;15.53;52.88;96544.09;105821;1252;61254;-39
2024/01/03 02:51:53;;;;;;;3.30;1.50;;;;;;;15.53;52.85;96541.78;105639;1256;75137;-39
2024/01/03 02:54:19;;;;;;;1.70;1.30;;;;;;;15.53;52.79;96542.63;105873;1256;64903;-39
2024/01/03 02:56:46;;;;;;;1.70;1.60;;;;;;;15.53;52.89;96539.17;105838;1253;72386;-39
2024/01/03 02:59:13;;;;;;;1.50;1.30;;;;;;;15.54;52.86;96537.27;105774;1256;61245;-39
2024/01/03 03:01:40;;;;;;;1.80;1.40;;;;;;;15.54;52.93;96532.39;105523;1253;61737;-40
2024/01/03 03:04:06;;;;;;;1.90;1.50;;;;;;;15.54;52.86;96531.63;105793;1253;74257;-38
2024/01/03 03:06:33;;;;;;;1.80;1.50;;;;;;;15.55;52.80;96526.30;105915;1256;66263;-38
2024/01/03 03:09:00;;;;;;;1.20;1.10;;;;;;;15.54;52.79;96525.46;105967;1256;72630;-38
2024/01/03 03:11:42;;;;;;;1.50;1.40;;;;;;;15.55;52.85;96516.38;105895;1256;61259;-38
2024/01/03 03:14:10;;;;;;;1.90;1.70;;;;;;;15.54;52.83;96508.90;105943;1253;61226;-40
2024/01/03 03:16:36;;;;;;;2.10;1.70;;;;;;;15.55;52.87;96503.80;105932;1256;74387;-38
2024/01/03 03:19:05;;;;;;;2.00;1.60;;;;;;;15.55;52.77;96501.88;105795;1256;66324;-38
2024/01/03 03:21:31;;;;;;;2.00;1.60;;;;;;;15.55;52.79;96502.58;105930;1252;72591;-38
2024/01/03 03:23:58;;;;;;;1.50;1.40;;;;;;;15.55;52.81;96497.65;105953;1256;61266;-38
2024/01/03 03:26:24;;;;;;;2.00;1.60;;;;;;;15.55;52.82;96485.77;105874;1256;61228;-38
2024/01/03 03:28:51;;;;;;;3.70;1.60;;;;;;;15.55;52.86;96481.84;105888;1254;61138;-38
2024/01/03 03:31:17;;;;;;;2.10;1.60;;;;;;;15.55;52.83;96479.30;105890;1253;61237;-38
2024/01/03 03:33:44;;;;;;;3.20;1.30;;;;;;;15.56;52.79;96477.22;105818;1253;72409;-38
2024/01/03 03:36:12;;;;;;;1.70;1.40;;;;;;;15.56;52.79;96470.44;105739;1256;61243;-39
2024/01/03 03:38:40;;;;;;;2.50;1.50;;;;;;;15.56;52.82;96472.14;105543;1253;61325;-40
2024/01/03 03:41:10;;;;;;;3.00;1.70;;;;;;;15.56;52.80;96470.69;105860;1253;74459;-38
2024/01/03 03:43:38;;;;;;;2.30;1.60;;;;;;;15.56;52.76;96468.14;105819;1252;65794;-38
2024/01/03 03:46:06;;;;;;;1.90;1.60;;;;;;;15.56;52.74;96462.04;105799;1254;72646;-38
2024/01/03 03:48:33;;;;;;;1.80;1.50;;;;;;;15.57;52.77;96460.12;105933;1253;61364;-38
2024/01/03 03:51:01;;;;;;;2.00;1.50;;;;;;;15.57;52.84;96454.10;105918;1253;61280;-38
2024/01/03 03:53:27;;;;;;;1.40;1.30;;;;;;;15.57;52.76;96450.94;105928;1256;74328;-38
2024/01/03 03:55:54;;;;;;;1.90;1.40;;;;;;;15.57;52.79;96450.02;105882;1256;66720;-38
2024/01/03 03:58:20;;;;;;;1.60;1.50;;;;;;;15.57;52.74;96445.31;105919;1256;71448;-38
2024/01/03 04:00:47;;;;;;;1.90;1.70;;;;;;;15.57;52.81;96442.09;105785;1256;61151;-38
2024/01/03 04:03:14;;;;;;;1.60;1.50;;;;;;;15.57;52.83;96439.31;105946;1253;61330;-38
2024/01/03 04:05:41;;;;;;;1.60;1.40;;;;;;;15.57;52.77;96440.33;105843;1256;73407;-38
2024/01/03 04:08:07;;;;;;;1.40;1.30;;;;;;;15.57;52.77;96434.30;105548;1256;65854;-40
2024/01/03 04:10:35;;;;;;;1.90;1.60;;;;;;;15.57;52.79;96431.91;105583;1253;72521;-38
2024/01/03 04:13:01;;;;;;;1.80;1.60;;;;;;;15.58;52.73;96427.14;105586;1255;61321;-39
2024/01/03 04:15:28;;;;;;;1.60;1.30;;;;;;;15.57;52.81;96423.65;105705;1253;61310;-38
2024/01/03 04:17:56;;;;;;;1.50;1.40;;;;;;;15.57;52.81;96415.34;106358;1256;74921;-39
2024/01/03 04:20:23;;;;;;;1.50;1.40;;;;;;;15.58;52.82;96413.29;105690;1256;66082;-38
2024/01/03 04:22:50;;;;;;;1.80;1.40;;;;;;;15.58;52.84;96408.57;105782;1253;72626;-38
2024/01/03 04:25:17;;;;;;;1.50;1.40;;;;;;;15.58;52.78;96406.26;105804;1256;61248;-38
2024/01/03 04:27:44;;;;;;;1.90;1.60;;;;;;;15.58;52.78;96401.16;105681;1254;61234;-38
2024/01/03 04:30:11;;;;;;;1.50;1.40;;;;;;;15.59;52.71;96393.64;105880;1256;74385;-38
2024/01/03 04:32:38;;;;;;;2.00;1.60;;;;;;;15.58;52.74;96390.77;105917;1256;63925;-39
2024/01/03 04:35:05;;;;;;;1.80;1.60;;;;;;;15.59;52.83;96383.08;105848;1253;72625;-38
2024/01/03 04:37:33;;;;;;;1.70;1.40;;;;;;;15.59;52.88;96378.29;105754;1256;61315;-38
2024/01/03 04:39:59;;;;;;;2.00;1.50;;;;;;;15.59;52.77;96375.28;105866;1252;61394;-38
2024/01/03 04:42:26;;;;;;;2.10;1.60;;;;;;;15.59;52.70;96372.98;105926;1254;74623;-38
2024/01/03 04:44:53;;;;;;;1.90;1.50;;;;;;;15.59;52.75;96370.97;105886;1256;65827;-38
2024/01/03 04:47:19;;;;;;;1.70;1.50;;;;;;;15.59;52.71;96364.17;105937;1256;72393;-39
2024/01/03 04:49:47;;;;;;;1.90;1.30;;;;;;;15.59;52.75;96356.48;105979;1256;61328;-38
2024/01/03 04:52:13;;;;;;;2.40;1.50;;;;;;;15.59;52.81;96356.92;105859;1253;61327;-38
2024/01/03 04:54:40;;;;;;;1.60;1.40;;;;;;;15.59;52.81;96350.69;105874;1254;75426;-38
2024/01/03 04:57:07;;;;;;;1.60;1.50;;;;;;;15.59;52.78;96347.76;105715;1253;66102;-39
2024/01/03 04:59:33;;;;;;;2.40;1.50;;;;;;;15.60;52.79;96347.83;105677;1253;72651;-38
2024/01/03 05:02:00;;;;;;;1.60;1.50;;;;;;;15.60;52.73;96341.20;105645;1256;61334;-38
2024/01/03 05:04:26;;;;;;;1.90;1.50;;;;;;;15.60;52.71;96338.13;105803;1252;61247;-38
2024/01/03 05:06:53;;;;;;;1.50;1.40;;;;;;;15.59;52.70;96333.73;105466;1256;74567;-39
2024/01/03 05:09:20;;;;;;;1.50;1.40;;;;;;;15.60;52.72;96339.43;105503;1256;65901;-39
2024/01/03 05:11:46;;;;;;;1.70;1.20;;;;;;;15.59;52.69;96333.72;105689;1253;72605;-39
2024/01/03 05:14:13;;;;;;;1.90;1.70;;;;;;;15.60;52.74;96332.19;105694;1256;61401;-39
2024/01/03 05:16:41;;;;;;;1.60;1.40;;;;;;;15.60;52.75;96329.64;105585;1253;61333;-39
2024/01/03 05:19:07;;;;;;;1.60;1.50;;;;;;;15.60;52.74;96328.72;105849;1256;75758;-39
2024/01/03 05:21:34;;;;;;;2.70;1.30;;;;;;;15.60;52.82;96328.34;105941;1253;65079;-39
2024/01/03 05:24:01;;;;;;;1.70;1.40;;;;;;;15.60;52.71;96322.63;105865;1252;61225;-39
2024/01/03 05:26:28;;;;;;;1.60;1.50;;;;;;;15.60;52.72;96321.77;105896;1256;61258;-39
2024/01/03 05:28:54;;;;;;;1.60;1.40;;;;;;;15.60;52.78;96318.31;105723;1252;61318;-39
2024/01/03 05:31:21;;;;;;;3.40;1.50;;;;;;;15.61;52.71;96312.93;105901;1253;74562;-39
2024/01/03 05:33:47;;;;;;;1.40;1.20;;;;;;;15.60;52.76;96309.83;105841;1256;65753;-38
2024/01/03 05:36:14;;;;;;;2.20;1.60;;;;;;;15.60;52.82;96307.98;105609;1253;72557;-39
2024/01/03 05:38:41;;;;;;;1.60;1.50;;;;;;;15.60;52.74;96302.52;105883;1256;61251;-39
2024/01/03 05:41:08;;;;;;;1.80;1.50;;;;;;;15.60;52.81;96305.22;105925;1253;61327;-39
2024/01/03 05:43:35;;;;;;;2.00;1.70;;;;;;;15.60;52.73;96298.20;105931;1256;74358;-39
2024/01/03 05:46:02;;;;;;;1.90;1.50;;;;;;;15.61;52.66;96299.82;105870;1253;65951;-39
2024/01/03 05:48:29;;;;;;;1.60;1.30;;;;;;;15.61;52.67;96297.27;105795;1253;72645;-39
2024/01/03 05:50:55;;;;;;;1.70;1.50;;;;;;;15.60;52.78;96294.42;105808;1253;61231;-38
2024/01/03 05:53:22;;;;;;;2.20;1.50;;;;;;;15.61;52.78;96290.35;105660;1253;61305;-39
2024/01/03 05:55:49;;;;;;;1.50;1.40;;;;;;;15.61;52.76;96288.73;105661;1254;74704;-39
2024/01/03 05:58:16;;;;;;;2.10;1.60;;;;;;;15.61;52.72;96286.64;105736;1256;65140;-39
2024/01/03 06:00:42;;;;;;;1.40;1.30;;;;;;;15.61;52.69;96281.41;105711;1252;72545;-39
2024/01/03 06:03:09;;;;;;;2.10;1.50;;;;;;;15.61;52.75;96281.94;105618;1256;61217;-39
2024/01/03 06:05:35;;;;;;;1.50;1.40;;;;;;;15.61;52.73;96280.41;105674;1253;61235;-39
2024/01/03 06:08:04;;;;;;;1.50;1.40;;;;;;;15.61;52.77;96276.92;105764;1252;74459;-39
2024/01/03 06:10:31;;;;;;;1.60;1.50;;;;;;;15.61;52.66;96275.24;105742;1253;66282;-38
2024/01/03 06:12:57;;;;;;;1.40;1.30;;;;;;;15.61;52.63;96277.79;105633;1253;72455;-38
2024/01/03 06:15:24;;;;;;;1.60;1.50;;;;;;;15.61;52.71;96272.85;105865;1256;61360;-39
2024/01/03 06:17:50;;;;;;;1.60;1.50;;;;;;;15.61;52.73;96268.84;105973;1253;61245;-39
2024/01/03 06:20:18;;;;;;;1.60;1.50;;;;;;;15.61;52.71;96267.60;105831;1253;74454;-39
2024/01/03 06:22:46;;;;;;;2.00;1.60;;;;;;;15.61;52.71;96268.98;105587;1253;66330;-38
2024/01/03 06:25:13;;;;;;;3.00;1.60;;;;;;;15.61;52.73;96268.68;105634;1256;61280;-38
2024/01/03 06:27:39;;;;;;;1.50;1.40;;;;;;;15.62;52.69;96263.52;105635;1256;61237;-40
2024/01/03 06:30:07;;;;;;;1.70;1.40;;;;;;;15.62;52.75;96264.83;105536;1253;61917;-40
2024/01/03 06:32:34;;;;;;;1.50;1.40;;;;;;;15.61;52.80;96261.98;105572;1253;74346;-40
2024/01/03 06:35:01;;;;;;;1.70;1.60;;;;;;;15.62;52.73;96257.42;105616;1256;65965;-40
2024/01/03 06:37:28;;;;;;;2.00;1.50;;;;;;;15.61;52.79;96258.43;105587;1253;72375;-40
2024/01/03 06:39:54;;;;;;;3.70;1.60;;;;;;;15.62;52.80;96255.11;105793;1256;61299;-40
2024/01/03 06:42:21;;;;;;;1.30;1.20;;;;;;;15.61;52.72;96253.19;105661;1256;63034;-38
2024/01/03 06:44:47;;;;;;;1.50;1.40;;;;;;;15.62;52.71;96249.17;105731;1253;74373;-39
2024/01/03 06:47:14;;;;;;;1.90;1.50;;;;;;;15.62;52.73;96247.32;105953;1253;65894;-39
2024/01/03 06:49:41;;;;;;;1.60;1.50;;;;;;;15.63;52.76;96243.02;105868;1256;72407;-39
2024/01/03 06:52:07;;;;;;;2.20;1.50;;;;;;;15.62;52.77;96247.56;105722;1256;61344;-39
2024/01/03 06:54:35;;;;;;;2.10;1.30;;;;;;;15.63;52.66;96241.02;105847;1253;61215;-39
2024/01/03 06:57:03;;;;;;;1.40;1.30;;;;;;;15.62;52.68;96241.31;105828;1256;74298;-39
2024/01/03 06:59:34;;;;;;;1.80;1.60;;;;;;;15.62;52.66;96240.47;105775;1256;66038;-39
2024/01/03 07:02:01;;;;;;;3.10;1.50;;;;;;;15.63;52.73;96238.09;105692;1256;71103;-39
2024/01/03 07:04:28;;;;;;;1.40;1.30;;;;;;;15.62;52.64;96237.00;105563;1256;61229;-39
2024/01/03 07:06:55;;;;;;;1.60;1.30;;;;;;;15.62;52.73;96236.70;105725;1252;61252;-39
2024/01/03 07:09:22;;;;;;;1.80;1.40;;;;;;;15.62;52.68;96234.39;105871;1253;74586;-39
2024/01/03 07:11:49;;;;;;;1.50;1.30;;;;;;;15.62;52.76;96233.53;105714;1256;65839;-39
2024/01/03 07:14:16;;;;;;;1.60;1.20;;;;;;;15.63;52.66;96232.54;105639;1256;72642;-39
2024/01/03 07:16:43;;;;;;;1.60;1.40;;;;;;;15.63;52.69;96231.46;105829;1256;61161;-39
2024/01/03 07:19:10;;;;;;;1.90;1.60;;;;;;;15.63;52.76;96231.77;105473;1253;61261;-39
2024/01/03 07:21:37;;;;;;;1.50;1.40;;;;;;;15.63;52.77;96237.88;105554;1256;74457;-39
2024/01/03 07:24:04;;;;;;;1.60;1.50;;;;;;;15.63;52.71;96233.39;105753;1256;67090;-39
2024/01/03 07:26:31;;;;;;;2.30;1.40;;;;;;;15.63;52.63;96231.08;105743;1253;72707;-39
2024/01/03 07:28:58;;;;;;;1.50;1.40;;;;;;;15.62;52.77;96231.84;105585;1256;61229;-39
2024/01/03 07:31:25;;;;;;;1.80;1.50;;;;;;;15.62;52.68;96227.60;105666;1253;61392;-39
2024/01/03 07:33:52;;;;;;;1.70;1.40;;;;;;;15.63;52.58;96230.53;105767;1252;74574;-39
2024/01/03 07:36:19;;;;;;;1.80;1.60;;;;;;;15.63;52.70;96227.67;105717;1255;66218;-39
2024/01/03 07:38:46;;;;;;;1.70;1.50;;;;;;;15.62;52.81;96228.46;105532;1253;72270;-39
2024/01/03 07:41:19;;;;;;;1.90;1.50;;;;;;;15.63;52.78;96224.13;105730;1255;61353;-39
2024/01/03 07:43:46;;;;;;;1.80;1.60;;;;;;;15.62;52.69;96224.52;105911;1256;61400;-38
2024/01/03 07:46:17;;;;;;;1.60;1.50;;;;;;;15.62;52.71;96225.75;105897;1251;74567;-38
2024/01/03 07:48:44;;;;;;;1.80;1.40;;;;;;;15.63;52.69;96217.58;105888;1256;66170;-38
2024/01/03 07:51:11;;;;;;;1.60;1.50;;;;;;;15.62;52.68;96211.88;105721;1251;72641;-38
2024/01/03 07:53:38;;;;;;;1.90;1.60;;;;;;;15.62;52.65;96214.48;105895;1255;61549;-40
2024/01/03 07:56:08;;;;;;;1.70;1.60;;;;;;;15.63;52.73;96212.73;105650;1253;61317;-40
2024/01/03 07:58:35;;;;;;;1.60;1.40;;;;;;;15.63;52.70;96211.96;105535;1256;74620;-40
2024/01/03 08:01:02;;;;;;;1.50;1.30;;;;;;;15.63;52.61;96208.79;105551;1256;66225;-39
2024/01/03 08:03:29;;;;;;;2.50;1.60;;;;;;;15.63;52.59;96204.25;105606;1253;72458;-40
2024/01/03 08:05:56;;;;;;;1.60;1.50;;;;;;;15.63;52.62;96206.33;105522;1256;61131;-40
2024/01/03 08:08:23;;;;;;;1.70;1.40;;;;;;;15.64;52.70;96203.02;105639;1254;61267;-40
2024/01/03 08:10:49;;;;;;;1.90;1.50;;;;;;;15.63;52.71;96199.86;105760;1254;74754;-39
2024/01/03 08:13:16;;;;;;;2.00;1.40;;;;;;;15.64;52.55;96194.70;105701;1254;66113;-39
2024/01/03 08:15:43;;;;;;;1.40;1.30;;;;;;;15.63;52.66;96192.30;105811;1254;72551;-39
2024/01/03 08:18:10;;;;;;;1.60;1.10;;;;;;;15.64;52.66;96190.22;106045;1255;61327;-39
2024/01/03 08:20:37;;;;;;;1.40;1.30;;;;;;;15.64;52.62;96189.30;105972;1251;61248;-39
2024/01/03 08:23:04;;;;;;;1.60;1.40;;;;;;;15.64;52.70;96183.90;106093;1251;74457;-40
2024/01/03 08:25:31;;;;;;;1.80;1.50;;;;;;;15.64;52.62;96181.66;105743;1256;67247;-40
2024/01/03 08:27:58;;;;;;;2.30;1.60;;;;;;;15.63;52.62;96182.20;106238;1253;73051;-40
2024/01/03 08:30:25;;;;;;;1.60;1.50;;;;;;;15.64;52.63;96177.51;105588;1256;61276;-39
2024/01/03 08:32:51;;;;;;;2.20;1.50;;;;;;;15.64;52.70;96172.41;105567;1253;61231;-40
2024/01/03 08:35:19;;;;;;;1.80;1.60;;;;;;;15.65;52.64;96167.10;105664;1252;74597;-40
2024/01/03 08:37:45;;;;;;;2.10;1.50;;;;;;;15.65;52.68;96163.64;105601;1255;65980;-39
2024/01/03 08:40:12;;;;;;;2.20;1.60;;;;;;;15.64;52.67;96158.54;105791;1256;72513;-39
2024/01/03 08:42:39;;;;;;;1.70;1.50;;;;;;;15.65;52.59;96157.39;105849;1256;61301;-38
2024/01/03 08:45:06;;;;;;;1.70;1.40;;;;;;;15.65;52.60;96150.84;105682;1253;61367;-38
2024/01/03 08:47:34;;;;;;;2.80;1.50;;;;;;;15.65;52.68;96149.38;105797;1256;74720;-39
2024/01/03 08:50:02;;;;;;;2.10;1.70;;;;;;;15.65;52.59;96148.30;105869;1256;65902;-40
2024/01/03 08:52:29;;;;;;;1.70;1.50;;;;;;;15.65;52.59;96146.99;105823;1253;72287;-38
2024/01/03 08:54:56;;;;;;;1.80;1.60;;;;;;;15.65;52.59;96138.74;105664;1253;61219;-40
2024/01/03 08:57:23;;;;;;;1.90;1.70;;;;;;;15.65;52.66;96137.50;105712;1253;61264;-39
2024/01/03 08:59:50;;;;;;;1.90;1.50;;;;;;;15.66;52.61;96140.76;105562;1258;74390;-39
2024/01/03 09:02:16;;;;;;;1.70;1.50;;;;;;;15.66;52.67;96133.81;105580;1255;65076;-40
2024/01/03 09:04:43;;;;;;;1.90;1.40;;;;;;;15.67;52.53;96132.59;105728;1256;72588;-38
2024/01/03 09:07:09;;;;;;;1.60;1.40;;;;;;;15.67;52.70;96129.66;105841;1256;61267;-41
2024/01/03 09:09:39;;;;;;;1.50;1.20;;;;;;;15.67;52.67;96127.27;105935;1253;61346;-40
2024/01/03 09:12:05;;;;;;;2.40;1.60;;;;;;;15.67;52.63;96128.04;105940;1255;74627;-41
2024/01/03 09:14:32;;;;;;;1.70;1.40;;;;;;;15.66;52.56;96122.10;105775;1256;66227;-39
2024/01/03 09:17:00;;;;;;;1.70;1.60;;;;;;;15.67;52.61;96121.34;105725;1251;73602;-39
2024/01/03 09:19:26;;;;;;;3.50;1.50;;;;;;;15.67;52.60;96116.16;105862;1256;61218;-40
2024/01/03 09:21:55;;;;;;;2.20;1.50;;;;;;;15.67;52.56;96118.86;105717;1251;61241;-39
2024/01/03 09:24:21;;;;;;;1.60;1.40;;;;;;;15.67;52.56;96118.64;105803;1256;74555;-39
2024/01/03 09:26:48;;;;;;;1.80;1.50;;;;;;;15.67;52.63;96110.15;105559;1256;65564;-39
2024/01/03 09:29:15;;;;;;;1.60;1.40;;;;;;;15.67;52.55;96106.06;109476;1251;73463;-40
2024/01/03 09:31:44;;;;;;;1.60;1.50;;;;;;;15.68;52.61;96105.23;109503;1252;59027;-40
2024/01/03 09:34:11;;;;;;;3.00;1.70;;;;;;;15.68;52.61;96101.92;106489;1254;59696;-40
2024/01/03 09:36:37;;;;;;;1.80;1.60;;;;;;;15.69;52.57;96094.28;105647;1253;74633;-39
2024/01/03 09:39:04;;;;;;;1.30;1.20;;;;;;;15.70;52.56;96090.45;105916;1255;66262;-39
2024/01/03 09:41:32;;;;;;;1.90;1.40;;;;;;;15.71;52.54;96092.69;105807;1254;72992;-39
2024/01/03 09:43:59;;;;;;;2.10;1.70;;;;;;;15.71;52.50;96087.98;105801;1256;61208;-39
2024/01/03 09:46:26;;;;;;;2.50;1.80;;;;;;;15.71;52.52;96082.75;105611;1253;61356;-40
2024/01/03 09:48:53;;;;;;;1.70;1.60;;;;;;;15.72;52.59;96077.05;105765;1254;74550;-40
2024/01/03 09:51:21;;;;;;;2.20;1.70;;;;;;;15.72;52.52;96080.05;105644;1258;66079;-40
2024/01/03 09:53:51;;;;;;;2.40;1.40;;;;;;;15.72;52.51;96079.67;105641;1255;71185;-39
2024/01/03 09:56:17;;;;;;;2.30;1.70;;;;;;;15.72;52.50;96076.91;106723;1254;61334;-39
2024/01/03 09:58:46;;;;;;;2.10;1.60;;;;;;;15.72;52.47;96069.27;105657;1256;61340;-40
2024/01/03 10:01:12;;;;;;;1.80;1.50;;;;;;;15.72;52.42;96066.34;105872;1253;74605;-38
2024/01/03 10:03:39;;;;;;;1.80;1.60;;;;;;;15.72;52.49;96061.80;105946;1256;66123;-38
2024/01/03 10:06:12;;;;;;;1.50;1.40;;;;;;;15.72;52.46;96053.23;105898;1254;72515;-39
2024/01/03 10:09:00;;;;;;;2.10;1.60;;;;;;;15.72;52.45;96050.76;105724;1256;61208;-39
2024/01/03 10:11:27;;;;;;;1.80;1.50;;;;;;;15.72;52.49;96042.05;105696;1254;61232;-39
2024/01/03 10:13:55;;;;;;;2.30;1.50;;;;;;;15.72;52.52;96037.26;105876;1256;75587;-39
2024/01/03 10:16:26;;;;;;;2.30;1.70;;;;;;;15.72;52.53;96035.42;105826;1256;66245;-39
2024/01/03 10:19:13;;;;;;;1.60;1.50;;;;;;;15.72;52.50;96032.17;105738;1251;71481;-39
2024/01/03 10:21:55;;;;;;;2.60;1.50;;;;;;;15.72;52.55;96024.85;105749;1256;61347;-41
2024/01/03 10:24:25;;;;;;;2.40;1.50;;;;;;;15.72;52.56;96022.91;105889;1252;61330;-40
2024/01/03 10:26:53;;;;;;;1.90;1.70;;;;;;;15.71;52.53;96026.77;105836;1253;75726;-38
2024/01/03 10:29:20;;;;;;;1.60;1.50;;;;;;;15.71;52.59;96018.13;105678;1256;66090;-39
2024/01/03 10:31:48;;;;;;;2.40;1.60;;;;;;;15.71;52.59;96010.33;105789;1254;73400;-39
2024/01/03 10:34:23;;;;;;;1.70;1.60;;;;;;;15.70;52.51;96003.87;105878;1254;61174;-39
2024/01/03 10:36:52;;;;;;;1.60;1.40;;;;;;;15.70;52.50;95997.92;105900;1256;61412;-39
2024/01/03 10:39:19;;;;;;;2.00;1.40;;;;;;;15.69;52.51;96003.02;105992;1252;74514;-39
2024/01/03 10:41:47;;;;;;;2.60;1.50;;;;;;;15.70;52.53;95996.60;105779;1256;64951;-39
2024/01/03 10:44:15;;;;;;;2.30;1.70;;;;;;;15.69;52.57;95986.73;105795;1252;72597;-40
2024/01/03 10:46:45;;;;;;;2.10;1.60;;;;;;;15.69;52.51;95988.10;105688;1251;61259;-39
2024/01/03 10:49:12;;;;;;;1.60;1.40;;;;;;;15.69;52.62;95983.70;105779;1255;62007;-39
2024/01/03 10:51:40;;;;;;;1.90;1.50;;;;;;;15.68;52.55;95981.48;105686;1254;74566;-39
2024/01/03 10:54:10;;;;;;;2.10;1.70;;;;;;;15.68;52.61;95978.39;105883;1251;65170;-39
2024/01/03 10:56:37;;;;;;;1.60;1.40;;;;;;;15.68;52.58;95970.83;105770;1254;73056;-40
2024/01/03 10:59:04;;;;;;;2.30;1.80;;;;;;;15.67;52.56;95960.27;105768;1256;61223;-40
2024/01/03 11:01:55;;;;;;;2.50;1.70;;;;;;;15.67;52.56;95957.17;105565;1254;61251;-40
2024/01/03 11:04:32;;;;;;;2.40;1.50;;;;;;;15.67;52.56;95951.23;105835;1253;75547;-39
2024/01/03 11:07:13;;;;;;;1.40;1.30;;;;;;;15.66;52.62;95950.08;105806;1256;66112;-38
2024/01/03 11:09:40;;;;;;;1.70;1.50;;;;;;;15.66;52.61;95951.62;105763;1253;72354;-40
2024/01/03 11:12:10;;;;;;;1.80;1.40;;;;;;;15.65;52.63;95952.31;105376;1259;61227;-40
2024/01/03 11:14:37;;;;;;;1.80;1.50;;;;;;;15.65;52.56;95944.83;105566;1253;61344;-39
2024/01/03 11:17:06;;;;;;;1.70;1.40;;;;;;;15.65;52.66;95941.66;105904;1253;75403;-39
2024/01/03 11:19:33;;;;;;;2.20;1.50;;;;;;;15.65;52.57;95938.58;105605;1257;66103;-40
2024/01/03 11:22:03;;;;;;;1.60;1.40;;;;;;;15.63;52.60;95935.55;105514;1253;73085;-39
2024/01/03 11:24:30;;;;;;;2.00;1.50;;;;;;;15.63;52.69;95927.08;105775;1259;61234;-39
2024/01/03 11:27:04;;;;;;;1.70;1.40;;;;;;;15.63;52.61;95920.44;105611;1253;61338;-39